sensor_id;sensor_type;location;lat;lon;timestamp;temperature;humidity
56044;DHT22;41912;51.022;3.664;2022-07-01T00:02:01;16.00;99.90
56044;DHT22;41912;51.022;3.664;2022-07-01T00:04:27;16.00;99.90
56044;DHT22;41912;51.022;3.664;2022-07-01T00:06:56;16.00;99.90
56044;DHT22;41912;51.022;3.664;2022-07-01T00:09:22;16.00;99.90
56044;DHT22;41912;51.022;3.664;2022-07-01T00:11:48;16.00;99.90
56044;DHT22;41912;51.022;3.664;2022-07-01T00:14:14;16.00;99.90
56044;DHT22;41912;51.022;3.664;2022-07-01T00:16:40;16.00;99.90
56044;DHT22;41912;51.022;3.664;2022-07-01T00:19:06;16.00;99.90
56044;DHT22;41912;51.022;3.664;2022-07-01T00:21:32;15.90;99.90
56044;DHT22;41912;51.022;3.664;2022-07-01T00:23:58;15.90;99.90
56044;DHT22;41912;51.022;3.664;2022-07-01T00:26:24;15.90;99.90
56044;DHT22;41912;51.022;3.664;2022-07-01T00:28:50;15.90;99.90
56044;DHT22;41912;51.022;3.664;2022-07-01T00:31:15;15.90;99.90
56044;DHT22;41912;51.022;3.664;2022-07-01T00:33:41;15.90;99.80
56044;DHT22;41912;51.022;3.664;2022-07-01T00:36:07;15.90;99.80
56044;DHT22;41912;51.022;3.664;2022-07-01T00:38:32;15.80;99.60
56044;DHT22;41912;51.022;3.664;2022-07-01T00:40:58;15.80;99.50
56044;DHT22;41912;51.022;3.664;2022-07-01T00:43:24;15.80;99.50
56044;DHT22;41912;51.022;3.664;2022-07-01T00:45:53;15.80;99.50
56044;DHT22;41912;51.022;3.664;2022-07-01T00:48:20;15.80;99.50
56044;DHT22;41912;51.022;3.664;2022-07-01T00:50:47;15.70;99.50
56044;DHT22;41912;51.022;3.664;2022-07-01T00:53:14;15.70;99.70
56044;DHT22;41912;51.022;3.664;2022-07-01T00:55:40;15.70;99.40
56044;DHT22;41912;51.022;3.664;2022-07-01T00:58:08;15.70;99.40
56044;DHT22;41912;51.022;3.664;2022-07-01T01:00:35;15.70;99.40
56044;DHT22;41912;51.022;3.664;2022-07-01T01:03:00;15.60;99.40
56044;DHT22;41912;51.022;3.664;2022-07-01T01:05:26;15.60;99.40
56044;DHT22;41912;51.022;3.664;2022-07-01T01:07:52;15.60;99.40
56044;DHT22;41912;51.022;3.664;2022-07-01T01:10:18;15.60;99.30
56044;DHT22;41912;51.022;3.664;2022-07-01T01:12:44;15.50;99.20
56044;DHT22;41912;51.022;3.664;2022-07-01T01:15:16;15.50;99.20
56044;DHT22;41912;51.022;3.664;2022-07-01T01:17:42;15.50;99.20
56044;DHT22;41912;51.022;3.664;2022-07-01T01:20:08;15.50;99.20
56044;DHT22;41912;51.022;3.664;2022-07-01T01:22:34;15.40;99.20
56044;DHT22;41912;51.022;3.664;2022-07-01T01:25:00;15.40;99.40
56044;DHT22;41912;51.022;3.664;2022-07-01T01:27:25;15.40;99.40
56044;DHT22;41912;51.022;3.664;2022-07-01T01:29:51;15.40;99.50
56044;DHT22;41912;51.022;3.664;2022-07-01T01:32:16;15.40;99.50
56044;DHT22;41912;51.022;3.664;2022-07-01T01:34:42;15.40;99.50
56044;DHT22;41912;51.022;3.664;2022-07-01T01:37:08;15.40;99.40
56044;DHT22;41912;51.022;3.664;2022-07-01T01:39:34;15.40;99.40
56044;DHT22;41912;51.022;3.664;2022-07-01T01:42:04;15.40;99.30
56044;DHT22;41912;51.022;3.664;2022-07-01T01:44:30;15.40;99.20
56044;DHT22;41912;51.022;3.664;2022-07-01T01:46:55;15.50;99.10
56044;DHT22;41912;51.022;3.664;2022-07-01T01:49:21;15.40;99.10
56044;DHT22;41912;51.022;3.664;2022-07-01T01:51:47;15.30;98.90
56044;DHT22;41912;51.022;3.664;2022-07-01T01:54:12;15.30;99.00
56044;DHT22;41912;51.022;3.664;2022-07-01T01:56:38;15.30;99.00
56044;DHT22;41912;51.022;3.664;2022-07-01T01:59:04;15.30;99.00
56044;DHT22;41912;51.022;3.664;2022-07-01T02:01:30;15.30;99.10
56044;DHT22;41912;51.022;3.664;2022-07-01T02:03:56;15.30;99.10
56044;DHT22;41912;51.022;3.664;2022-07-01T02:06:22;15.20;99.00
56044;DHT22;41912;51.022;3.664;2022-07-01T02:08:48;15.20;99.10
56044;DHT22;41912;51.022;3.664;2022-07-01T02:11:13;15.20;99.00
56044;DHT22;41912;51.022;3.664;2022-07-01T02:13:39;15.20;99.00
56044;DHT22;41912;51.022;3.664;2022-07-01T02:16:05;15.30;99.10
56044;DHT22;41912;51.022;3.664;2022-07-01T02:18:31;15.20;99.00
56044;DHT22;41912;51.022;3.664;2022-07-01T02:20:58;15.10;98.90
56044;DHT22;41912;51.022;3.664;2022-07-01T02:23:24;15.10;98.80
56044;DHT22;41912;51.022;3.664;2022-07-01T02:25:50;15.10;98.80
56044;DHT22;41912;51.022;3.664;2022-07-01T02:28:16;15.10;98.80
56044;DHT22;41912;51.022;3.664;2022-07-01T02:30:42;15.10;98.80
56044;DHT22;41912;51.022;3.664;2022-07-01T02:33:08;15.10;98.90
56044;DHT22;41912;51.022;3.664;2022-07-01T02:35:36;15.10;99.00
56044;DHT22;41912;51.022;3.664;2022-07-01T02:38:04;15.10;99.10
56044;DHT22;41912;51.022;3.664;2022-07-01T02:40:30;15.10;99.00
56044;DHT22;41912;51.022;3.664;2022-07-01T02:42:56;15.00;99.20
56044;DHT22;41912;51.022;3.664;2022-07-01T02:45:22;15.00;99.10
56044;DHT22;41912;51.022;3.664;2022-07-01T02:47:50;14.90;99.10
56044;DHT22;41912;51.022;3.664;2022-07-01T02:50:18;14.90;99.10
56044;DHT22;41912;51.022;3.664;2022-07-01T02:52:43;14.90;99.10
56044;DHT22;41912;51.022;3.664;2022-07-01T02:55:11;14.90;99.20
56044;DHT22;41912;51.022;3.664;2022-07-01T02:57:38;14.90;99.20
56044;DHT22;41912;51.022;3.664;2022-07-01T03:00:06;14.90;99.20
56044;DHT22;41912;51.022;3.664;2022-07-01T03:02:33;14.80;99.10
56044;DHT22;41912;51.022;3.664;2022-07-01T03:04:59;14.90;99.00
56044;DHT22;41912;51.022;3.664;2022-07-01T03:07:24;14.80;99.00
56044;DHT22;41912;51.022;3.664;2022-07-01T03:09:51;14.80;99.00
56044;DHT22;41912;51.022;3.664;2022-07-01T03:12:17;14.80;98.90
56044;DHT22;41912;51.022;3.664;2022-07-01T03:17:28;14.80;99.00
56044;DHT22;41912;51.022;3.664;2022-07-01T03:19:55;14.70;99.10
56044;DHT22;41912;51.022;3.664;2022-07-01T03:22:22;14.70;99.10
56044;DHT22;41912;51.022;3.664;2022-07-01T03:24:49;14.70;99.10
56044;DHT22;41912;51.022;3.664;2022-07-01T03:27:16;14.70;99.00
56044;DHT22;41912;51.022;3.664;2022-07-01T03:29:43;14.70;98.80
56044;DHT22;41912;51.022;3.664;2022-07-01T03:32:09;14.70;98.90
56044;DHT22;41912;51.022;3.664;2022-07-01T03:34:36;14.70;98.90
56044;DHT22;41912;51.022;3.664;2022-07-01T03:37:03;14.60;99.00
56044;DHT22;41912;51.022;3.664;2022-07-01T03:39:29;14.60;99.00
56044;DHT22;41912;51.022;3.664;2022-07-01T03:41:54;14.60;99.00
56044;DHT22;41912;51.022;3.664;2022-07-01T03:44:20;14.60;99.00
56044;DHT22;41912;51.022;3.664;2022-07-01T03:46:46;14.60;99.40
56044;DHT22;41912;51.022;3.664;2022-07-01T03:49:11;14.60;99.10
56044;DHT22;41912;51.022;3.664;2022-07-01T03:51:37;14.50;99.20
56044;DHT22;41912;51.022;3.664;2022-07-01T03:54:03;14.50;99.40
56044;DHT22;41912;51.022;3.664;2022-07-01T03:56:47;14.50;99.50
56044;DHT22;41912;51.022;3.664;2022-07-01T03:59:12;14.40;99.60
56044;DHT22;41912;51.022;3.664;2022-07-01T04:01:38;14.40;99.60
56044;DHT22;41912;51.022;3.664;2022-07-01T04:04:04;14.40;99.70
56044;DHT22;41912;51.022;3.664;2022-07-01T04:06:30;14.40;99.70
56044;DHT22;41912;51.022;3.664;2022-07-01T04:08:55;14.40;99.80
56044;DHT22;41912;51.022;3.664;2022-07-01T04:11:21;14.50;99.80
56044;DHT22;41912;51.022;3.664;2022-07-01T04:13:47;14.50;99.70
56044;DHT22;41912;51.022;3.664;2022-07-01T04:16:17;14.50;99.70
56044;DHT22;41912;51.022;3.664;2022-07-01T04:18:43;14.50;99.70
56044;DHT22;41912;51.022;3.664;2022-07-01T04:21:09;14.50;99.70
56044;DHT22;41912;51.022;3.664;2022-07-01T04:23:53;14.50;99.60
56044;DHT22;41912;51.022;3.664;2022-07-01T04:26:19;14.50;99.60
56044;DHT22;41912;51.022;3.664;2022-07-01T04:28:44;14.50;99.60
56044;DHT22;41912;51.022;3.664;2022-07-01T04:31:10;14.50;99.80
56044;DHT22;41912;51.022;3.664;2022-07-01T04:33:35;14.40;99.80
56044;DHT22;41912;51.022;3.664;2022-07-01T04:36:01;14.50;99.80
56044;DHT22;41912;51.022;3.664;2022-07-01T04:38:27;14.50;99.90
56044;DHT22;41912;51.022;3.664;2022-07-01T04:40:53;14.50;99.70
56044;DHT22;41912;51.022;3.664;2022-07-01T04:43:37;14.50;99.80
56044;DHT22;41912;51.022;3.664;2022-07-01T04:46:03;14.50;99.80
56044;DHT22;41912;51.022;3.664;2022-07-01T04:48:28;14.50;99.90
56044;DHT22;41912;51.022;3.664;2022-07-01T04:50:54;14.50;99.80
56044;DHT22;41912;51.022;3.664;2022-07-01T04:53:19;14.60;99.90
56044;DHT22;41912;51.022;3.664;2022-07-01T04:55:45;14.60;99.90
56044;DHT22;41912;51.022;3.664;2022-07-01T04:58:12;14.60;99.90
56044;DHT22;41912;51.022;3.664;2022-07-01T05:00:38;14.70;99.90
56044;DHT22;41912;51.022;3.664;2022-07-01T05:03:04;14.70;99.90
56044;DHT22;41912;51.022;3.664;2022-07-01T05:05:29;14.70;99.90
56044;DHT22;41912;51.022;3.664;2022-07-01T05:07:55;14.70;99.90
56044;DHT22;41912;51.022;3.664;2022-07-01T05:10:20;14.80;99.90
56044;DHT22;41912;51.022;3.664;2022-07-01T05:12:46;14.80;99.90
56044;DHT22;41912;51.022;3.664;2022-07-01T05:15:12;14.80;99.90
56044;DHT22;41912;51.022;3.664;2022-07-01T05:17:37;14.80;99.90
56044;DHT22;41912;51.022;3.664;2022-07-01T05:20:21;14.80;99.90
56044;DHT22;41912;51.022;3.664;2022-07-01T05:23:05;14.90;99.90
56044;DHT22;41912;51.022;3.664;2022-07-01T05:25:31;14.90;99.90
56044;DHT22;41912;51.022;3.664;2022-07-01T05:27:57;15.00;99.90
56044;DHT22;41912;51.022;3.664;2022-07-01T05:30:23;15.00;99.90
56044;DHT22;41912;51.022;3.664;2022-07-01T05:32:48;15.00;99.90
56044;DHT22;41912;51.022;3.664;2022-07-01T05:35:14;15.00;99.90
56044;DHT22;41912;51.022;3.664;2022-07-01T05:37:40;15.00;99.90
56044;DHT22;41912;51.022;3.664;2022-07-01T05:40:07;15.00;99.90
56044;DHT22;41912;51.022;3.664;2022-07-01T05:42:33;15.10;99.90
56044;DHT22;41912;51.022;3.664;2022-07-01T05:44:58;15.10;99.90
56044;DHT22;41912;51.022;3.664;2022-07-01T05:47:24;15.20;99.90
56044;DHT22;41912;51.022;3.664;2022-07-01T05:49:50;15.20;99.90
56044;DHT22;41912;51.022;3.664;2022-07-01T05:52:16;15.40;99.90
56044;DHT22;41912;51.022;3.664;2022-07-01T05:54:41;15.30;99.90
56044;DHT22;41912;51.022;3.664;2022-07-01T05:57:07;15.30;99.90
56044;DHT22;41912;51.022;3.664;2022-07-01T05:59:33;15.30;99.90
56044;DHT22;41912;51.022;3.664;2022-07-01T06:01:58;15.40;99.90
56044;DHT22;41912;51.022;3.664;2022-07-01T06:04:24;15.30;99.90
56044;DHT22;41912;51.022;3.664;2022-07-01T06:06:49;15.40;99.90
56044;DHT22;41912;51.022;3.664;2022-07-01T06:09:15;15.50;99.90
56044;DHT22;41912;51.022;3.664;2022-07-01T06:11:41;15.50;99.90
56044;DHT22;41912;51.022;3.664;2022-07-01T06:14:06;15.50;99.90
56044;DHT22;41912;51.022;3.664;2022-07-01T06:16:32;15.60;99.90
56044;DHT22;41912;51.022;3.664;2022-07-01T06:18:58;15.60;99.90
56044;DHT22;41912;51.022;3.664;2022-07-01T06:21:24;15.60;99.90
56044;DHT22;41912;51.022;3.664;2022-07-01T06:23:49;15.70;99.90
56044;DHT22;41912;51.022;3.664;2022-07-01T06:26:15;15.70;99.90
56044;DHT22;41912;51.022;3.664;2022-07-01T06:28:41;15.70;99.90
56044;DHT22;41912;51.022;3.664;2022-07-01T06:31:07;15.80;99.90
56044;DHT22;41912;51.022;3.664;2022-07-01T06:33:33;15.80;99.90
56044;DHT22;41912;51.022;3.664;2022-07-01T06:35:58;15.90;99.90
56044;DHT22;41912;51.022;3.664;2022-07-01T06:38:24;15.90;99.90
56044;DHT22;41912;51.022;3.664;2022-07-01T06:40:50;15.90;99.90
56044;DHT22;41912;51.022;3.664;2022-07-01T06:43:35;15.90;99.90
56044;DHT22;41912;51.022;3.664;2022-07-01T06:46:01;16.00;99.90
56044;DHT22;41912;51.022;3.664;2022-07-01T06:48:28;16.00;99.90
56044;DHT22;41912;51.022;3.664;2022-07-01T06:50:53;16.10;99.90
56044;DHT22;41912;51.022;3.664;2022-07-01T06:53:19;16.10;99.90
56044;DHT22;41912;51.022;3.664;2022-07-01T06:55:45;16.20;99.90
56044;DHT22;41912;51.022;3.664;2022-07-01T06:58:11;16.20;99.90
56044;DHT22;41912;51.022;3.664;2022-07-01T07:00:36;16.20;99.90
56044;DHT22;41912;51.022;3.664;2022-07-01T07:03:02;16.30;99.90
56044;DHT22;41912;51.022;3.664;2022-07-01T07:05:28;16.30;99.90
56044;DHT22;41912;51.022;3.664;2022-07-01T07:07:56;16.30;99.90
56044;DHT22;41912;51.022;3.664;2022-07-01T07:10:22;16.40;99.90
56044;DHT22;41912;51.022;3.664;2022-07-01T07:12:48;16.50;99.90
56044;DHT22;41912;51.022;3.664;2022-07-01T07:15:14;16.60;99.90
56044;DHT22;41912;51.022;3.664;2022-07-01T07:17:40;16.60;99.90
56044;DHT22;41912;51.022;3.664;2022-07-01T07:20:06;16.70;99.90
56044;DHT22;41912;51.022;3.664;2022-07-01T07:22:31;16.70;99.90
56044;DHT22;41912;51.022;3.664;2022-07-01T07:24:57;16.80;99.80
56044;DHT22;41912;51.022;3.664;2022-07-01T07:27:23;16.90;99.80
56044;DHT22;41912;51.022;3.664;2022-07-01T07:29:48;16.90;99.50
56044;DHT22;41912;51.022;3.664;2022-07-01T07:32:14;16.90;99.40
56044;DHT22;41912;51.022;3.664;2022-07-01T07:34:40;17.00;99.70
56044;DHT22;41912;51.022;3.664;2022-07-01T07:37:05;17.00;99.70
56044;DHT22;41912;51.022;3.664;2022-07-01T07:39:31;17.00;99.50
56044;DHT22;41912;51.022;3.664;2022-07-01T07:41:57;17.10;99.70
56044;DHT22;41912;51.022;3.664;2022-07-01T07:44:23;17.20;99.50
56044;DHT22;41912;51.022;3.664;2022-07-01T07:46:49;17.10;99.40
56044;DHT22;41912;51.022;3.664;2022-07-01T07:49:15;17.10;99.50
56044;DHT22;41912;51.022;3.664;2022-07-01T07:51:40;17.10;99.90
56044;DHT22;41912;51.022;3.664;2022-07-01T07:54:06;17.00;99.80
56044;DHT22;41912;51.022;3.664;2022-07-01T07:56:32;17.00;98.60
56044;DHT22;41912;51.022;3.664;2022-07-01T07:58:58;17.10;98.30
56044;DHT22;41912;51.022;3.664;2022-07-01T08:01:24;17.00;97.90
56044;DHT22;41912;51.022;3.664;2022-07-01T08:03:50;16.90;97.60
56044;DHT22;41912;51.022;3.664;2022-07-01T08:06:15;16.90;97.60
56044;DHT22;41912;51.022;3.664;2022-07-01T08:08:41;16.90;97.20
56044;DHT22;41912;51.022;3.664;2022-07-01T08:11:06;16.90;97.40
56044;DHT22;41912;51.022;3.664;2022-07-01T08:13:32;16.80;97.70
56044;DHT22;41912;51.022;3.664;2022-07-01T08:15:58;16.90;97.90
56044;DHT22;41912;51.022;3.664;2022-07-01T08:18:24;16.90;97.80
56044;DHT22;41912;51.022;3.664;2022-07-01T08:20:49;16.90;97.90
56044;DHT22;41912;51.022;3.664;2022-07-01T08:23:21;17.10;98.10
56044;DHT22;41912;51.022;3.664;2022-07-01T08:25:48;17.30;97.40
56044;DHT22;41912;51.022;3.664;2022-07-01T08:28:14;17.50;97.40
56044;DHT22;41912;51.022;3.664;2022-07-01T08:30:39;17.60;97.40
56044;DHT22;41912;51.022;3.664;2022-07-01T08:33:05;17.70;96.20
56044;DHT22;41912;51.022;3.664;2022-07-01T08:35:31;17.70;96.10
56044;DHT22;41912;51.022;3.664;2022-07-01T08:37:57;17.70;95.70
56044;DHT22;41912;51.022;3.664;2022-07-01T08:40:27;17.90;95.00
56044;DHT22;41912;51.022;3.664;2022-07-01T08:43:04;18.00;94.70
56044;DHT22;41912;51.022;3.664;2022-07-01T08:45:32;18.10;95.70
56044;DHT22;41912;51.022;3.664;2022-07-01T08:47:59;18.20;95.50
56044;DHT22;41912;51.022;3.664;2022-07-01T08:50:39;18.30;94.80
56044;DHT22;41912;51.022;3.664;2022-07-01T08:53:09;18.40;95.30
56044;DHT22;41912;51.022;3.664;2022-07-01T08:55:35;18.40;94.10
56044;DHT22;41912;51.022;3.664;2022-07-01T08:58:25;18.40;94.00
56044;DHT22;41912;51.022;3.664;2022-07-01T09:00:51;18.40;94.70
56044;DHT22;41912;51.022;3.664;2022-07-01T09:03:22;18.30;93.90
56044;DHT22;41912;51.022;3.664;2022-07-01T09:05:50;18.30;95.10
56044;DHT22;41912;51.022;3.664;2022-07-01T09:08:17;18.20;94.40
56044;DHT22;41912;51.022;3.664;2022-07-01T09:10:43;18.20;94.00
56044;DHT22;41912;51.022;3.664;2022-07-01T09:13:12;18.40;93.80
56044;DHT22;41912;51.022;3.664;2022-07-01T09:15:39;18.40;94.10
56044;DHT22;41912;51.022;3.664;2022-07-01T09:20:36;18.40;93.50
56044;DHT22;41912;51.022;3.664;2022-07-01T09:23:14;18.40;93.20
56044;DHT22;41912;51.022;3.664;2022-07-01T09:25:42;18.40;92.10
56044;DHT22;41912;51.022;3.664;2022-07-01T09:30:38;18.50;92.30
56044;DHT22;41912;51.022;3.664;2022-07-01T09:33:17;18.60;92.70
56044;DHT22;41912;51.022;3.664;2022-07-01T09:35:44;18.60;91.50
56044;DHT22;41912;51.022;3.664;2022-07-01T09:38:12;18.60;92.40
56044;DHT22;41912;51.022;3.664;2022-07-01T09:41:04;18.60;93.10
56044;DHT22;41912;51.022;3.664;2022-07-01T09:43:34;18.60;93.00
56044;DHT22;41912;51.022;3.664;2022-07-01T09:46:03;18.60;92.40
56044;DHT22;41912;51.022;3.664;2022-07-01T09:50:58;18.80;92.60
56044;DHT22;41912;51.022;3.664;2022-07-01T09:53:24;19.00;91.80
56044;DHT22;41912;51.022;3.664;2022-07-01T09:55:50;19.00;91.60
56044;DHT22;41912;51.022;3.664;2022-07-01T09:58:18;19.00;90.50
56044;DHT22;41912;51.022;3.664;2022-07-01T10:00:44;19.10;90.50
56044;DHT22;41912;51.022;3.664;2022-07-01T10:03:11;19.00;90.30
56044;DHT22;41912;51.022;3.664;2022-07-01T10:05:42;19.00;91.20
56044;DHT22;41912;51.022;3.664;2022-07-01T10:14:27;19.40;92.00
56044;DHT22;41912;51.022;3.664;2022-07-01T10:16:54;19.50;90.90
56044;DHT22;41912;51.022;3.664;2022-07-01T10:21:46;19.60;90.20
56044;DHT22;41912;51.022;3.664;2022-07-01T10:24:16;19.60;89.20
56044;DHT22;41912;51.022;3.664;2022-07-01T10:26:43;19.50;88.20
56044;DHT22;41912;51.022;3.664;2022-07-01T10:29:28;19.50;90.20
56044;DHT22;41912;51.022;3.664;2022-07-01T10:31:54;19.50;90.20
56044;DHT22;41912;51.022;3.664;2022-07-01T10:34:25;19.40;90.20
56044;DHT22;41912;51.022;3.664;2022-07-01T10:37:07;19.50;90.50
56044;DHT22;41912;51.022;3.664;2022-07-01T10:39:56;19.60;90.10
56044;DHT22;41912;51.022;3.664;2022-07-01T10:42:57;19.80;90.40
56044;DHT22;41912;51.022;3.664;2022-07-01T10:45:24;19.90;88.70
56044;DHT22;41912;51.022;3.664;2022-07-01T10:48:19;20.00;87.50
56044;DHT22;41912;51.022;3.664;2022-07-01T10:50:46;20.10;89.50
56044;DHT22;41912;51.022;3.664;2022-07-01T10:53:16;20.10;89.00
56044;DHT22;41912;51.022;3.664;2022-07-01T10:55:51;20.20;87.20
56044;DHT22;41912;51.022;3.664;2022-07-01T10:58:17;20.30;85.10
56044;DHT22;41912;51.022;3.664;2022-07-01T11:00:49;20.40;86.90
56044;DHT22;41912;51.022;3.664;2022-07-01T11:05:43;20.60;85.70
56044;DHT22;41912;51.022;3.664;2022-07-01T11:08:09;20.70;87.00
56044;DHT22;41912;51.022;3.664;2022-07-01T11:10:38;20.80;86.90
56044;DHT22;41912;51.022;3.664;2022-07-01T11:13:03;20.90;86.10
56044;DHT22;41912;51.022;3.664;2022-07-01T11:15:29;21.00;84.80
56044;DHT22;41912;51.022;3.664;2022-07-01T11:17:57;21.10;84.00
56044;DHT22;41912;51.022;3.664;2022-07-01T11:20:24;21.10;83.10
56044;DHT22;41912;51.022;3.664;2022-07-01T11:22:50;21.20;83.50
56044;DHT22;41912;51.022;3.664;2022-07-01T11:25:18;21.30;83.10
56044;DHT22;41912;51.022;3.664;2022-07-01T11:27:49;21.30;82.20
56044;DHT22;41912;51.022;3.664;2022-07-01T11:30:17;21.40;83.50
56044;DHT22;41912;51.022;3.664;2022-07-01T11:32:46;21.50;83.60
56044;DHT22;41912;51.022;3.664;2022-07-01T11:35:17;21.60;82.00
56044;DHT22;41912;51.022;3.664;2022-07-01T11:38:28;21.60;83.20
56044;DHT22;41912;51.022;3.664;2022-07-01T11:41:23;21.50;80.10
56044;DHT22;41912;51.022;3.664;2022-07-01T11:43:50;21.40;83.10
56044;DHT22;41912;51.022;3.664;2022-07-01T11:46:17;21.30;82.20
56044;DHT22;41912;51.022;3.664;2022-07-01T11:48:47;21.10;82.50
56044;DHT22;41912;51.022;3.664;2022-07-01T11:51:21;21.00;80.10
56044;DHT22;41912;51.022;3.664;2022-07-01T11:53:49;20.90;81.70
56044;DHT22;41912;51.022;3.664;2022-07-01T11:56:16;20.60;86.00
56044;DHT22;41912;51.022;3.664;2022-07-01T11:58:52;20.40;88.10
56044;DHT22;41912;51.022;3.664;2022-07-01T12:03:55;20.10;90.40
56044;DHT22;41912;51.022;3.664;2022-07-01T12:06:21;20.00;90.90
56044;DHT22;41912;51.022;3.664;2022-07-01T12:08:49;19.90;91.60
56044;DHT22;41912;51.022;3.664;2022-07-01T12:11:17;19.80;91.80
56044;DHT22;41912;51.022;3.664;2022-07-01T12:13:44;19.80;92.40
56044;DHT22;41912;51.022;3.664;2022-07-01T12:16:12;19.80;92.50
56044;DHT22;41912;51.022;3.664;2022-07-01T12:18:38;19.70;92.80
56044;DHT22;41912;51.022;3.664;2022-07-01T12:21:06;19.70;93.10
56044;DHT22;41912;51.022;3.664;2022-07-01T12:23:32;19.70;93.20
56044;DHT22;41912;51.022;3.664;2022-07-01T12:25:58;19.80;93.60
56044;DHT22;41912;51.022;3.664;2022-07-01T12:28:32;19.80;93.00
56044;DHT22;41912;51.022;3.664;2022-07-01T12:31:03;19.80;93.40
56044;DHT22;41912;51.022;3.664;2022-07-01T12:33:29;19.80;93.10
56044;DHT22;41912;51.022;3.664;2022-07-01T12:35:55;19.80;93.00
56044;DHT22;41912;51.022;3.664;2022-07-01T12:38:21;19.90;93.20
56044;DHT22;41912;51.022;3.664;2022-07-01T12:40:47;19.90;93.30
56044;DHT22;41912;51.022;3.664;2022-07-01T12:43:23;20.00;92.30
56044;DHT22;41912;51.022;3.664;2022-07-01T12:45:49;20.10;93.00
56044;DHT22;41912;51.022;3.664;2022-07-01T12:48:15;20.10;93.00
56044;DHT22;41912;51.022;3.664;2022-07-01T12:50:41;20.10;92.60
56044;DHT22;41912;51.022;3.664;2022-07-01T12:53:09;20.10;92.60
56044;DHT22;41912;51.022;3.664;2022-07-01T12:55:43;20.20;92.30
56044;DHT22;41912;51.022;3.664;2022-07-01T12:58:18;20.30;90.90
56044;DHT22;41912;51.022;3.664;2022-07-01T13:00:46;20.40;89.80
56044;DHT22;41912;51.022;3.664;2022-07-01T13:03:12;20.40;90.50
56044;DHT22;41912;51.022;3.664;2022-07-01T13:05:39;20.50;90.80
56044;DHT22;41912;51.022;3.664;2022-07-01T13:08:05;20.60;89.40
56044;DHT22;41912;51.022;3.664;2022-07-01T13:10:31;20.60;90.00
56044;DHT22;41912;51.022;3.664;2022-07-01T13:12:57;20.70;89.70
56044;DHT22;41912;51.022;3.664;2022-07-01T13:15:23;20.80;90.40
56044;DHT22;41912;51.022;3.664;2022-07-01T13:17:49;20.90;88.80
56044;DHT22;41912;51.022;3.664;2022-07-01T13:20:16;21.00;90.20
56044;DHT22;41912;51.022;3.664;2022-07-01T13:22:42;21.10;89.00
56044;DHT22;41912;51.022;3.664;2022-07-01T13:25:09;21.30;87.10
56044;DHT22;41912;51.022;3.664;2022-07-01T13:27:36;21.40;86.60
56044;DHT22;41912;51.022;3.664;2022-07-01T13:30:08;21.40;86.50
56044;DHT22;41912;51.022;3.664;2022-07-01T13:32:35;21.40;86.90
56044;DHT22;41912;51.022;3.664;2022-07-01T13:35:01;21.40;83.80
56044;DHT22;41912;51.022;3.664;2022-07-01T13:37:28;21.40;84.20
56044;DHT22;41912;51.022;3.664;2022-07-01T13:39:54;21.50;83.60
56044;DHT22;41912;51.022;3.664;2022-07-01T13:42:20;21.70;84.30
56044;DHT22;41912;51.022;3.664;2022-07-01T13:44:45;21.80;81.70
56044;DHT22;41912;51.022;3.664;2022-07-01T13:47:11;22.10;82.00
56044;DHT22;41912;51.022;3.664;2022-07-01T13:49:40;22.10;79.30
56044;DHT22;41912;51.022;3.664;2022-07-01T13:52:08;22.10;77.90
56044;DHT22;41912;51.022;3.664;2022-07-01T13:54:34;22.20;77.50
56044;DHT22;41912;51.022;3.664;2022-07-01T13:57:00;22.30;76.00
56044;DHT22;41912;51.022;3.664;2022-07-01T13:59:25;22.40;76.00
56044;DHT22;41912;51.022;3.664;2022-07-01T14:01:51;22.50;75.80
56044;DHT22;41912;51.022;3.664;2022-07-01T14:04:17;22.60;76.70
56044;DHT22;41912;51.022;3.664;2022-07-01T14:06:42;22.70;75.50
56044;DHT22;41912;51.022;3.664;2022-07-01T14:09:08;22.90;75.00
56044;DHT22;41912;51.022;3.664;2022-07-01T14:11:34;22.90;73.70
56044;DHT22;41912;51.022;3.664;2022-07-01T14:13:59;22.70;73.00
56044;DHT22;41912;51.022;3.664;2022-07-01T14:16:25;22.90;72.70
56044;DHT22;41912;51.022;3.664;2022-07-01T14:18:55;23.00;72.10
56044;DHT22;41912;51.022;3.664;2022-07-01T14:21:21;23.10;71.20
56044;DHT22;41912;51.022;3.664;2022-07-01T14:23:47;23.10;72.70
56044;DHT22;41912;51.022;3.664;2022-07-01T14:26:13;23.20;73.00
56044;DHT22;41912;51.022;3.664;2022-07-01T14:28:39;23.40;72.20
56044;DHT22;41912;51.022;3.664;2022-07-01T14:31:06;23.40;70.90
56044;DHT22;41912;51.022;3.664;2022-07-01T14:33:32;23.40;72.10
56044;DHT22;41912;51.022;3.664;2022-07-01T14:35:57;23.30;72.10
56044;DHT22;41912;51.022;3.664;2022-07-01T14:38:23;23.20;71.30
56044;DHT22;41912;51.022;3.664;2022-07-01T14:40:49;23.20;70.50
56044;DHT22;41912;51.022;3.664;2022-07-01T14:43:14;23.40;69.30
56044;DHT22;41912;51.022;3.664;2022-07-01T14:45:40;23.50;71.50
56044;DHT22;41912;51.022;3.664;2022-07-01T14:48:07;23.60;70.00
56044;DHT22;41912;51.022;3.664;2022-07-01T14:50:34;23.80;71.70
56044;DHT22;41912;51.022;3.664;2022-07-01T14:53:00;23.70;68.40
56044;DHT22;41912;51.022;3.664;2022-07-01T14:55:28;23.80;72.10
56044;DHT22;41912;51.022;3.664;2022-07-01T14:57:54;23.80;72.10
56044;DHT22;41912;51.022;3.664;2022-07-01T15:00:19;23.80;70.10
56044;DHT22;41912;51.022;3.664;2022-07-01T15:02:46;23.70;71.20
56044;DHT22;41912;51.022;3.664;2022-07-01T15:05:12;23.60;71.50
56044;DHT22;41912;51.022;3.664;2022-07-01T15:07:38;23.50;73.80
56044;DHT22;41912;51.022;3.664;2022-07-01T15:10:05;23.50;71.40
56044;DHT22;41912;51.022;3.664;2022-07-01T15:12:32;23.60;72.20
56044;DHT22;41912;51.022;3.664;2022-07-01T15:14:57;23.60;72.00
56044;DHT22;41912;51.022;3.664;2022-07-01T15:17:23;23.70;72.80
56044;DHT22;41912;51.022;3.664;2022-07-01T15:19:49;23.60;67.30
56044;DHT22;41912;51.022;3.664;2022-07-01T15:22:15;23.50;69.80
56044;DHT22;41912;51.022;3.664;2022-07-01T15:24:41;23.50;69.70
56044;DHT22;41912;51.022;3.664;2022-07-01T15:27:07;23.60;70.90
56044;DHT22;41912;51.022;3.664;2022-07-01T15:29:33;23.80;69.20
56044;DHT22;41912;51.022;3.664;2022-07-01T15:31:59;23.80;69.80
56044;DHT22;41912;51.022;3.664;2022-07-01T15:34:25;23.70;71.10
56044;DHT22;41912;51.022;3.664;2022-07-01T15:36:51;23.60;68.80
56044;DHT22;41912;51.022;3.664;2022-07-01T15:39:17;23.40;69.60
56044;DHT22;41912;51.022;3.664;2022-07-01T15:41:44;23.30;70.40
56044;DHT22;41912;51.022;3.664;2022-07-01T15:44:11;23.20;72.40
56044;DHT22;41912;51.022;3.664;2022-07-01T15:46:37;23.20;72.70
56044;DHT22;41912;51.022;3.664;2022-07-01T15:49:04;23.30;72.20
56044;DHT22;41912;51.022;3.664;2022-07-01T15:51:31;23.20;72.70
56044;DHT22;41912;51.022;3.664;2022-07-01T15:53:57;23.20;73.60
56044;DHT22;41912;51.022;3.664;2022-07-01T15:56:24;23.20;73.80